createdAt,value
2019-02-17T00:01:52.763Z,21.10
2019-02-17T00:04:19.855Z,21.10
2019-02-17T00:06:47.060Z,21.20
2019-02-17T00:09:13.826Z,21.20
2019-02-17T00:11:40.689Z,21.20
2019-02-17T00:14:07.413Z,21.20
2019-02-17T00:16:34.135Z,21.20
2019-02-17T00:19:01.013Z,21.30
2019-02-17T00:21:27.838Z,21.20
2019-02-17T00:23:54.570Z,21.30
2019-02-17T00:26:21.403Z,21.20
2019-02-17T00:28:48.268Z,21.20
2019-02-17T00:31:15.134Z,21.20
2019-02-17T00:33:41.948Z,21.20
2019-02-17T00:36:08.784Z,21.20
2019-02-17T00:38:35.522Z,21.20
2019-02-17T00:41:02.245Z,21.20
2019-02-17T00:43:29.006Z,21.10
2019-02-17T00:45:55.940Z,21.10
2019-02-17T00:48:22.795Z,21.10
2019-02-17T00:50:49.524Z,21.10
2019-02-17T00:53:16.248Z,21.10
2019-02-17T00:55:43.322Z,21.00
2019-02-17T00:58:10.084Z,21.10
2019-02-17T01:00:37.863Z,21.10
2019-02-17T01:03:04.646Z,21.10
2019-02-17T01:05:32.005Z,21.10
2019-02-17T01:08:06.312Z,21.10
2019-02-17T01:10:32.950Z,21.10
2019-02-17T01:13:00.003Z,21.20
2019-02-17T01:15:27.257Z,21.20
2019-02-17T01:17:53.996Z,21.20
2019-02-17T01:20:20.846Z,21.20
2019-02-17T01:22:48.620Z,21.20
2019-02-17T01:25:15.347Z,21.20
2019-02-17T01:27:42.071Z,21.20
2019-02-17T01:30:09.794Z,21.20
2019-02-17T01:32:37.085Z,21.20
2019-02-17T01:35:03.822Z,21.10
2019-02-17T01:37:30.583Z,21.10
2019-02-17T01:39:57.711Z,21.10
2019-02-17T01:42:24.600Z,21.10
2019-02-17T01:44:51.601Z,21.10
2019-02-17T01:47:19.787Z,21.20
2019-02-17T01:49:46.888Z,21.20
2019-02-17T01:52:13.565Z,21.20
2019-02-17T01:54:40.309Z,21.20
2019-02-17T01:57:07.961Z,21.20
2019-02-17T01:59:34.909Z,21.30
2019-02-17T02:02:02.575Z,21.20
2019-02-17T02:04:30.320Z,21.30
2019-02-17T02:06:57.886Z,21.20
2019-02-17T02:09:25.221Z,21.20
2019-02-17T02:11:51.984Z,21.20
2019-02-17T02:14:19.922Z,21.10
2019-02-17T02:16:46.683Z,21.20
2019-02-17T02:19:13.430Z,21.20
2019-02-17T02:21:40.275Z,21.10
2019-02-17T02:24:07.169Z,21.10
2019-02-17T02:26:33.866Z,21.20
2019-02-17T02:29:01.281Z,21.10
2019-02-17T02:31:27.939Z,21.10
2019-02-17T02:33:54.789Z,21.10
2019-02-17T02:36:21.524Z,21.10
2019-02-17T02:38:48.261Z,21.10
2019-02-17T02:41:14.966Z,21.10
2019-02-17T02:43:41.750Z,21.10
2019-02-17T02:46:09.807Z,21.10
2019-02-17T02:48:38.267Z,21.00
2019-02-17T02:51:05.043Z,21.00
2019-02-17T02:53:31.879Z,21.00
2019-02-17T02:55:59.020Z,21.00
2019-02-17T02:58:25.866Z,21.00
2019-02-17T03:00:52.594Z,21.00
2019-02-17T03:03:19.301Z,21.00
2019-02-17T03:05:46.186Z,21.00
2019-02-17T03:08:13.873Z,20.90
2019-02-17T03:10:40.683Z,20.90
2019-02-17T03:13:07.428Z,20.90
2019-02-17T03:15:34.270Z,20.90
2019-02-17T03:18:01.111Z,20.90
2019-02-17T03:20:27.958Z,20.80
2019-02-17T03:22:54.786Z,20.90
2019-02-17T03:25:22.059Z,20.80
2019-02-17T03:27:48.891Z,20.80
2019-02-17T03:30:15.619Z,20.80
2019-02-17T03:32:42.358Z,20.80
2019-02-17T03:35:09.198Z,20.80
2019-02-17T03:37:35.942Z,20.80
2019-02-17T03:40:02.685Z,20.80
2019-02-17T03:42:29.532Z,20.80
2019-02-17T03:44:56.271Z,20.80
2019-02-17T03:47:24.136Z,20.80
2019-02-17T03:49:50.864Z,20.80
2019-02-17T03:52:18.960Z,20.80
2019-02-17T03:54:45.681Z,20.70
2019-02-17T03:57:12.411Z,20.70
2019-02-17T03:59:39.763Z,20.70
2019-02-17T04:02:06.513Z,20.70
2019-02-17T04:04:33.935Z,20.70
2019-02-17T04:07:00.699Z,20.60
2019-02-17T04:09:29.328Z,20.60
2019-02-17T04:11:56.135Z,20.60
2019-02-17T04:14:22.979Z,20.60
2019-02-17T04:16:49.720Z,20.60
2019-02-17T04:19:17.582Z,20.60
2019-02-17T04:21:44.321Z,20.60
2019-02-17T04:24:11.768Z,20.60
2019-02-17T04:26:39.224Z,20.60
2019-02-17T04:29:05.974Z,20.60
2019-02-17T04:31:32.702Z,20.60
2019-02-17T04:34:00.381Z,20.60
2019-02-17T04:36:27.211Z,20.60
2019-02-17T04:38:55.254Z,20.60
2019-02-17T04:41:22.021Z,20.60
2019-02-17T04:43:48.754Z,20.60
2019-02-17T04:46:15.492Z,20.60
2019-02-17T04:48:42.245Z,20.60
2019-02-17T04:51:08.935Z,20.60
2019-02-17T04:53:35.619Z,20.60
2019-02-17T04:56:02.345Z,20.70
2019-02-17T04:58:29.089Z,20.60
2019-02-17T05:00:56.030Z,20.60
2019-02-17T05:03:22.770Z,20.60
2019-02-17T05:05:49.510Z,20.50
2019-02-17T05:08:16.366Z,20.50
2019-02-17T05:10:43.091Z,20.50
2019-02-17T05:13:09.894Z,20.50
2019-02-17T05:15:36.678Z,20.50
2019-02-17T05:18:03.522Z,20.40
2019-02-17T05:20:30.427Z,20.50
2019-02-17T05:22:57.207Z,20.40
2019-02-17T05:25:24.037Z,20.40
2019-02-17T05:27:50.675Z,20.40
2019-02-17T05:30:17.435Z,20.40
2019-02-17T05:32:44.152Z,20.40
2019-02-17T05:35:10.904Z,20.30
2019-02-17T05:37:37.684Z,20.30
2019-02-17T05:40:04.480Z,20.30
2019-02-17T05:42:31.326Z,20.20
2019-02-17T05:44:58.167Z,20.30
2019-02-17T05:47:24.896Z,20.20
2019-02-17T05:49:51.737Z,20.20
2019-02-17T05:52:18.486Z,20.20
2019-02-17T05:54:45.218Z,20.20
2019-02-17T05:57:11.968Z,20.20
2019-02-17T05:59:38.692Z,20.30
2019-02-17T06:02:05.544Z,20.30
2019-02-17T06:04:32.284Z,20.30
2019-02-17T06:06:59.024Z,20.30
2019-02-17T06:09:25.868Z,20.40
2019-02-17T06:11:52.717Z,20.40
2019-02-17T06:14:19.549Z,20.40
2019-02-17T06:16:46.403Z,20.40
2019-02-17T06:19:13.234Z,20.50
2019-02-17T06:21:40.080Z,20.50
2019-02-17T06:24:07.120Z,20.60
2019-02-17T06:26:33.919Z,20.60
2019-02-17T06:29:00.599Z,20.60
2019-02-17T06:31:27.456Z,20.60
2019-02-17T06:33:54.296Z,20.60
2019-02-17T06:36:21.051Z,20.60
2019-02-17T06:38:47.967Z,20.70
2019-02-17T06:41:14.806Z,20.80
2019-02-17T06:43:41.566Z,20.90
2019-02-17T06:46:08.391Z,21.00
2019-02-17T06:48:35.130Z,21.00
2019-02-17T06:51:01.961Z,21.10
2019-02-17T06:53:28.701Z,21.20
2019-02-17T06:55:55.447Z,21.30
2019-02-17T06:58:22.182Z,21.40
2019-02-17T07:00:48.815Z,21.60
2019-02-17T07:03:15.669Z,21.80
2019-02-17T07:05:42.408Z,22.00
2019-02-17T07:08:09.236Z,22.30
2019-02-17T07:10:35.978Z,22.50
2019-02-17T07:13:02.631Z,22.80
2019-02-17T07:15:29.464Z,22.90
2019-02-17T07:17:56.202Z,23.10
2019-02-17T07:20:22.904Z,23.20
2019-02-17T07:22:49.689Z,23.40
2019-02-17T07:25:16.411Z,23.50
2019-02-17T07:27:43.780Z,23.60
2019-02-17T07:30:10.522Z,23.70
2019-02-17T07:32:37.370Z,23.80
2019-02-17T07:35:04.300Z,23.80
2019-02-17T07:37:33.475Z,23.70
2019-02-17T07:39:59.510Z,23.60
2019-02-17T07:42:26.312Z,23.60
2019-02-17T07:44:53.091Z,23.50
2019-02-17T07:47:20.035Z,23.70
2019-02-17T07:49:47.114Z,23.80
2019-02-17T07:52:14.128Z,23.90
2019-02-17T07:54:41.441Z,24.00
2019-02-17T07:57:08.224Z,24.10
2019-02-17T07:59:34.968Z,24.20
2019-02-17T08:02:01.711Z,24.40
2019-02-17T08:04:28.778Z,24.40
2019-02-17T08:06:55.697Z,24.50
2019-02-17T08:09:22.750Z,24.60
2019-02-17T08:11:50.206Z,24.70
2019-02-17T08:14:17.071Z,24.90
2019-02-17T08:16:43.801Z,25.10
2019-02-17T08:19:10.500Z,25.20
2019-02-17T08:21:37.313Z,25.30
2019-02-17T08:24:04.093Z,25.30
2019-02-17T08:26:31.252Z,25.40
2019-02-17T08:28:58.697Z,25.30
2019-02-17T08:31:25.439Z,25.20
2019-02-17T08:33:52.380Z,25.10
2019-02-17T08:36:19.359Z,25.10
2019-02-17T08:38:46.074Z,25.20
2019-02-17T08:41:12.817Z,25.30
2019-02-17T08:43:39.549Z,25.50
2019-02-17T08:46:06.291Z,25.80
2019-02-17T08:48:33.132Z,26.30
2019-02-17T08:50:59.864Z,26.80
2019-02-17T08:53:26.602Z,27.40
2019-02-17T08:55:53.765Z,28.10
2019-02-17T08:58:20.503Z,28.90
2019-02-17T09:00:47.343Z,29.70
2019-02-17T09:03:14.284Z,30.60
2019-02-17T09:05:44.174Z,31.30
2019-02-17T09:08:09.399Z,31.80
2019-02-17T09:10:36.236Z,32.60
2019-02-17T09:13:02.979Z,33.10
2019-02-17T09:15:29.815Z,33.80
2019-02-17T09:17:56.453Z,34.20
2019-02-17T09:20:23.195Z,34.70
2019-02-17T09:22:50.498Z,35.30
2019-02-17T09:25:19.087Z,35.70
2019-02-17T09:27:46.008Z,36.30
2019-02-17T09:30:13.046Z,36.80
2019-02-17T09:32:39.867Z,37.20
2019-02-17T09:35:06.706Z,37.50
2019-02-17T09:37:33.549Z,37.90
2019-02-17T09:40:00.352Z,38.20
2019-02-17T09:42:27.062Z,38.50
2019-02-17T09:44:53.881Z,38.80
2019-02-17T09:47:20.601Z,38.90
2019-02-17T09:49:47.451Z,39.10
2019-02-17T09:52:14.291Z,39.40
2019-02-17T09:54:41.022Z,39.60
2019-02-17T09:57:07.660Z,39.30
2019-02-17T09:59:34.412Z,39.50
2019-02-17T10:02:01.146Z,39.60
2019-02-17T10:04:27.990Z,39.50
2019-02-17T10:06:54.826Z,39.50
2019-02-17T10:09:21.568Z,39.50
2019-02-17T10:11:48.506Z,39.40
2019-02-17T10:14:15.560Z,39.40
2019-02-17T10:16:42.258Z,39.70
2019-02-17T10:19:09.132Z,39.80
2019-02-17T10:21:35.976Z,40.00
2019-02-17T10:24:02.702Z,40.10
2019-02-17T10:26:29.452Z,40.00
2019-02-17T10:28:56.332Z,40.20
2019-02-17T10:31:23.136Z,40.40
2019-02-17T10:33:49.984Z,40.20
2019-02-17T10:36:16.827Z,40.50
2019-02-17T10:38:43.557Z,40.80
2019-02-17T10:41:10.298Z,40.90
2019-02-17T10:43:37.036Z,41.40
2019-02-17T10:46:05.977Z,41.80
2019-02-17T10:48:32.264Z,42.00
2019-02-17T10:50:59.111Z,42.00
2019-02-17T10:53:25.802Z,42.30
2019-02-17T10:55:52.473Z,42.60
2019-02-17T10:58:19.179Z,42.40
2019-02-17T11:00:45.850Z,43.20
2019-02-17T11:03:12.596Z,42.90
2019-02-17T11:05:39.329Z,43.30
2019-02-17T11:08:06.076Z,43.70
2019-02-17T11:10:32.804Z,44.20
2019-02-17T11:12:59.551Z,43.90
2019-02-17T11:15:26.283Z,44.10
2019-02-17T11:17:52.938Z,44.10
2019-02-17T11:20:19.665Z,44.40
2019-02-17T11:22:46.299Z,43.60
2019-02-17T11:25:13.038Z,42.60
2019-02-17T11:27:39.787Z,42.00
2019-02-17T11:30:06.620Z,40.30
2019-02-17T11:32:33.369Z,40.20
2019-02-17T11:35:00.343Z,39.20
2019-02-17T11:37:27.151Z,38.70
2019-02-17T11:39:53.890Z,38.60
2019-02-17T11:42:20.736Z,38.40
2019-02-17T11:44:47.469Z,38.70
2019-02-17T11:47:14.163Z,39.20
2019-02-17T11:49:40.851Z,39.60
2019-02-17T11:52:07.566Z,39.80
2019-02-17T11:54:34.345Z,39.90
2019-02-17T11:57:01.181Z,40.20
2019-02-17T11:59:27.928Z,40.70
2019-02-17T12:01:54.685Z,41.40
2019-02-17T12:04:21.588Z,41.90
2019-02-17T12:06:48.434Z,42.60
2019-02-17T12:09:15.176Z,43.40
2019-02-17T12:11:41.931Z,43.50
2019-02-17T12:14:08.856Z,43.30
2019-02-17T12:16:37.213Z,43.50
2019-02-17T12:19:04.176Z,43.10
2019-02-17T12:21:30.917Z,42.70
2019-02-17T12:23:57.653Z,41.90
2019-02-17T12:26:24.384Z,41.40
2019-02-17T12:28:51.122Z,41.10
2019-02-17T12:31:17.760Z,40.30
2019-02-17T12:33:44.462Z,39.70
2019-02-17T12:36:11.144Z,39.20
2019-02-17T12:38:37.846Z,39.20
2019-02-17T12:41:04.625Z,39.10
2019-02-17T12:43:31.359Z,38.60
2019-02-17T12:45:58.092Z,38.20
2019-02-17T12:48:24.835Z,37.90
2019-02-17T12:50:51.685Z,37.80
2019-02-17T12:53:18.434Z,37.60
2019-02-17T12:55:45.162Z,37.30
2019-02-17T12:58:11.975Z,36.70
2019-02-17T13:00:38.632Z,36.30
2019-02-17T13:03:05.481Z,36.10
2019-02-17T13:05:32.324Z,35.90
2019-02-17T13:07:59.064Z,35.50
2019-02-17T13:10:25.903Z,35.20
2019-02-17T13:12:52.755Z,35.00
2019-02-17T13:15:19.487Z,34.80
2019-02-17T13:17:46.213Z,34.90
2019-02-17T13:20:12.851Z,35.20
2019-02-17T13:22:39.600Z,35.50
2019-02-17T13:25:06.327Z,35.90
2019-02-17T13:27:33.181Z,36.30
2019-02-17T13:29:59.915Z,36.50
2019-02-17T13:32:26.762Z,37.40
2019-02-17T13:34:53.608Z,38.00
2019-02-17T13:37:20.340Z,38.70
2019-02-17T13:39:47.080Z,39.80
2019-02-17T13:42:13.923Z,40.50
2019-02-17T13:44:40.668Z,41.10
2019-02-17T13:47:07.606Z,41.80
2019-02-17T13:49:34.336Z,42.30
2019-02-17T13:52:00.970Z,42.90
2019-02-17T13:54:27.712Z,43.30
2019-02-17T13:56:54.448Z,42.90
2019-02-17T13:59:21.105Z,43.10
2019-02-17T14:01:47.831Z,43.20
2019-02-17T14:04:14.564Z,43.60
2019-02-17T14:06:41.216Z,43.70
2019-02-17T14:09:08.041Z,43.20
2019-02-17T14:11:34.684Z,43.10
2019-02-17T14:14:01.430Z,43.40
2019-02-17T14:16:28.124Z,43.40
2019-02-17T14:18:54.806Z,43.30
2019-02-17T14:21:21.544Z,43.30
2019-02-17T14:23:48.274Z,43.20
2019-02-17T14:26:15.023Z,43.10
2019-02-17T14:28:41.868Z,43.10
2019-02-17T14:31:08.616Z,42.90
2019-02-17T14:33:35.334Z,42.70
2019-02-17T14:36:02.101Z,42.40
2019-02-17T14:38:28.760Z,42.10
2019-02-17T14:40:55.564Z,41.80
2019-02-17T14:43:22.295Z,41.40
2019-02-17T14:45:49.031Z,41.20
2019-02-17T14:48:15.883Z,41.00
2019-02-17T14:50:42.617Z,40.70
2019-02-17T14:53:09.352Z,40.40
2019-02-17T14:55:36.101Z,40.00
2019-02-17T14:58:05.540Z,39.90
2019-02-17T15:00:31.418Z,39.70
2019-02-17T15:02:58.265Z,39.50
2019-02-17T15:05:25.810Z,39.30
2019-02-17T15:07:52.581Z,39.10
2019-02-17T15:10:19.222Z,38.90
2019-02-17T15:12:46.034Z,38.60
2019-02-17T15:15:12.772Z,38.30
2019-02-17T15:17:39.478Z,37.90
2019-02-17T15:20:06.255Z,37.50
2019-02-17T15:22:32.992Z,37.00
2019-02-17T15:24:59.726Z,36.40
2019-02-17T15:27:26.467Z,35.90
2019-02-17T15:29:53.227Z,35.40
2019-02-17T15:32:20.264Z,34.90
2019-02-17T15:34:47.033Z,34.50
2019-02-17T15:37:13.833Z,34.10
2019-02-17T15:39:41.733Z,33.70
2019-02-17T15:42:09.350Z,33.40
2019-02-17T15:44:36.506Z,33.00
2019-02-17T15:47:03.247Z,32.70
2019-02-17T15:49:30.108Z,32.50
2019-02-17T15:51:56.958Z,32.20
2019-02-17T15:54:23.779Z,32.00
2019-02-17T15:56:53.928Z,31.70
2019-02-17T15:59:21.557Z,31.60
2019-02-17T16:01:48.398Z,31.40
2019-02-17T16:04:15.260Z,31.20
2019-02-17T16:06:41.976Z,31.00
2019-02-17T16:09:08.840Z,30.80
2019-02-17T16:11:35.671Z,30.60
2019-02-17T16:14:02.426Z,30.50
2019-02-17T16:16:29.340Z,30.30
2019-02-17T16:18:56.300Z,30.10
2019-02-17T16:21:23.583Z,30.00
2019-02-17T16:23:50.713Z,29.80
2019-02-17T16:26:17.691Z,29.70
2019-02-17T16:28:44.326Z,29.60
2019-02-17T16:31:11.829Z,29.50
2019-02-17T16:33:39.464Z,29.30
2019-02-17T16:36:06.235Z,29.10
2019-02-17T16:38:33.442Z,29.00
2019-02-17T16:41:00.383Z,28.90
2019-02-17T16:43:27.161Z,28.70
2019-02-17T16:45:53.896Z,28.60
2019-02-17T16:48:20.653Z,28.50
2019-02-17T16:50:47.483Z,28.40
2019-02-17T16:53:14.225Z,28.30
2019-02-17T16:55:41.366Z,28.20
2019-02-17T16:58:08.514Z,28.10
2019-02-17T17:00:35.253Z,28.00
2019-02-17T17:03:02.107Z,27.80
2019-02-17T17:05:28.835Z,27.70
2019-02-17T17:07:55.576Z,27.60
2019-02-17T17:10:22.443Z,27.50
2019-02-17T17:12:49.165Z,27.40
2019-02-17T17:15:16.006Z,27.30
2019-02-17T17:17:42.894Z,27.20
2019-02-17T17:20:09.963Z,27.10
2019-02-17T17:22:36.950Z,27.10
2019-02-17T17:25:03.683Z,27.00
2019-02-17T17:27:30.532Z,26.90
2019-02-17T17:29:57.258Z,26.80
2019-02-17T17:32:23.996Z,26.80
2019-02-17T17:34:58.648Z,26.70
2019-02-17T17:37:19.225Z,26.60
2019-02-17T17:39:46.057Z,26.50
2019-02-17T17:42:13.005Z,26.50
2019-02-17T17:44:39.853Z,26.50
2019-02-17T17:47:06.588Z,26.40
2019-02-17T17:49:33.467Z,26.40
2019-02-17T17:52:00.274Z,26.30
2019-02-17T17:54:27.004Z,26.20
2019-02-17T17:56:53.853Z,26.10
2019-02-17T17:59:20.695Z,26.10
2019-02-17T18:01:47.386Z,26.00
2019-02-17T18:04:14.549Z,25.90
2019-02-17T18:06:41.323Z,25.90
2019-02-17T18:09:08.162Z,25.80
2019-02-17T18:11:35.097Z,25.70
2019-02-17T18:14:02.338Z,25.70
2019-02-17T18:16:29.198Z,25.60
2019-02-17T18:18:55.909Z,25.60
2019-02-17T18:21:23.293Z,25.50
2019-02-17T18:23:50.024Z,25.50
2019-02-17T18:26:16.760Z,25.40
2019-02-17T18:28:43.828Z,25.40
2019-02-17T18:31:10.663Z,25.30
2019-02-17T18:33:37.389Z,25.30
2019-02-17T18:36:04.264Z,25.20
2019-02-17T18:38:31.078Z,25.10
2019-02-17T18:40:57.932Z,25.10
2019-02-17T18:43:25.862Z,25.00
2019-02-17T18:45:52.736Z,25.00
2019-02-17T18:48:19.571Z,25.00
2019-02-17T18:50:46.301Z,24.90
2019-02-17T18:53:15.254Z,24.90
2019-02-17T18:55:41.466Z,24.90
2019-02-17T18:58:08.644Z,24.90
2019-02-17T19:00:35.867Z,24.90
2019-02-17T19:03:02.780Z,24.80
2019-02-17T19:05:32.317Z,24.80
2019-02-17T19:07:58.133Z,24.80
2019-02-17T19:10:25.376Z,24.70
2019-02-17T19:12:52.197Z,24.70
2019-02-17T19:15:19.048Z,24.60
2019-02-17T19:17:46.067Z,24.50
2019-02-17T19:20:12.820Z,24.50
2019-02-17T19:22:39.544Z,24.40
2019-02-17T19:25:06.298Z,24.40
2019-02-17T19:27:33.024Z,24.30
2019-02-17T19:29:59.827Z,24.30
2019-02-17T19:32:26.646Z,24.20
2019-02-17T19:34:53.456Z,24.20
2019-02-17T19:37:20.191Z,24.10
2019-02-17T19:39:46.954Z,24.10
2019-02-17T19:42:13.727Z,24.10
2019-02-17T19:44:40.524Z,24.00
2019-02-17T19:47:07.247Z,23.90
2019-02-17T19:49:33.960Z,23.90
2019-02-17T19:52:00.737Z,23.80
2019-02-17T19:54:27.571Z,23.70
2019-02-17T19:56:54.313Z,23.70
2019-02-17T19:59:21.044Z,23.60
2019-02-17T20:01:47.792Z,23.60
2019-02-17T20:04:14.533Z,23.60
2019-02-17T20:06:41.387Z,23.60
2019-02-17T20:09:08.099Z,23.50
2019-02-17T20:11:34.952Z,23.40
2019-02-17T20:14:01.798Z,23.40
2019-02-17T20:16:28.532Z,23.40
2019-02-17T20:18:55.392Z,23.30
2019-02-17T20:21:22.225Z,23.30
2019-02-17T20:23:48.958Z,23.30
2019-02-17T20:26:15.798Z,23.20
2019-02-17T20:28:43.654Z,23.20
2019-02-17T20:31:10.722Z,23.10
2019-02-17T20:33:37.428Z,23.10
2019-02-17T20:36:04.196Z,23.10
2019-02-17T20:38:31.031Z,23.10
2019-02-17T20:40:57.877Z,23.00
2019-02-17T20:43:24.707Z,23.00
2019-02-17T20:45:51.456Z,23.00
2019-02-17T20:48:18.297Z,23.00
2019-02-17T20:50:45.549Z,22.90
2019-02-17T20:53:12.390Z,22.90
2019-02-17T20:55:39.230Z,22.90
2019-02-17T20:58:06.661Z,22.80
2019-02-17T21:00:33.415Z,22.80
2019-02-17T21:03:00.181Z,22.80
2019-02-17T21:05:26.902Z,22.80
2019-02-17T21:07:53.741Z,22.70
2019-02-17T21:10:20.693Z,22.70
2019-02-17T21:12:47.428Z,22.70
2019-02-17T21:15:14.267Z,22.70
2019-02-17T21:17:41.119Z,22.70
2019-02-17T21:20:08.366Z,22.60
2019-02-17T21:22:35.185Z,22.80
2019-02-17T21:25:02.154Z,22.60
2019-02-17T21:27:28.993Z,22.60
2019-02-17T21:29:55.737Z,22.50
2019-02-17T21:32:22.569Z,22.50
2019-02-17T21:34:49.301Z,22.50
2019-02-17T21:37:16.919Z,22.50
2019-02-17T21:39:44.211Z,22.40
2019-02-17T21:42:10.975Z,22.40
2019-02-17T21:44:37.819Z,22.40
2019-02-17T21:47:04.876Z,22.40
2019-02-17T21:49:31.683Z,22.40
2019-02-17T21:51:58.450Z,22.30
2019-02-17T21:54:25.281Z,22.30
2019-02-17T21:56:52.122Z,22.30
2019-02-17T21:59:18.965Z,22.30
2019-02-17T22:01:46.238Z,22.30
2019-02-17T22:04:12.981Z,22.20
2019-02-17T22:06:39.894Z,22.20
2019-02-17T22:09:06.731Z,22.20
2019-02-17T22:11:33.476Z,22.10
2019-02-17T22:14:00.323Z,22.10
2019-02-17T22:16:27.060Z,22.00
2019-02-17T22:18:53.898Z,22.00
2019-02-17T22:21:20.735Z,22.00
2019-02-17T22:23:47.439Z,22.00
2019-02-17T22:26:14.219Z,22.00
2019-02-17T22:28:41.063Z,21.90
2019-02-17T22:31:07.787Z,21.90
2019-02-17T22:33:34.627Z,21.90
2019-02-17T22:36:01.367Z,21.90
2019-02-17T22:38:28.007Z,21.80
2019-02-17T22:40:54.707Z,21.80
2019-02-17T22:43:21.395Z,21.80
2019-02-17T22:45:48.219Z,21.80
2019-02-17T22:48:14.861Z,21.80
2019-02-17T22:50:41.596Z,21.80
2019-02-17T22:53:08.335Z,21.80
2019-02-17T22:55:35.138Z,21.70
2019-02-17T22:58:01.921Z,21.70
2019-02-17T23:00:28.873Z,21.70
2019-02-17T23:02:55.624Z,21.70
2019-02-17T23:05:22.468Z,21.60
2019-02-17T23:07:49.404Z,21.60
2019-02-17T23:10:16.140Z,21.60
2019-02-17T23:12:42.980Z,21.60
2019-02-17T23:15:09.808Z,21.60
2019-02-17T23:17:36.583Z,21.60
2019-02-17T23:20:03.389Z,21.50
2019-02-17T23:22:30.238Z,21.60
2019-02-17T23:24:56.981Z,21.50
2019-02-17T23:27:23.820Z,21.50
2019-02-17T23:29:52.096Z,21.50
2019-02-17T23:32:20.893Z,21.50
2019-02-17T23:34:49.369Z,21.40
2019-02-17T23:37:17.379Z,21.40
2019-02-17T23:39:44.391Z,21.40
2019-02-17T23:42:11.912Z,21.30
2019-02-17T23:44:39.588Z,21.30
2019-02-17T23:47:07.363Z,21.30
2019-02-17T23:49:34.104Z,21.30
2019-02-17T23:52:00.941Z,21.30
2019-02-17T23:54:27.643Z,21.20
2019-02-17T23:56:54.318Z,21.30
2019-02-17T23:59:21.662Z,21.20
